sensor_id;sensor_type;location;lat;lon;timestamp;pressure;altitude;pressure_sealevel;temperature;humidity
63907;BME280;50075;49.484;11.238;2024-03-23T00:55:33;97167.38;;;9.02;100.00
63907;BME280;50075;49.484;11.238;2024-03-23T00:57:58;97168.06;;;9.21;100.00
63907;BME280;50075;49.484;11.238;2024-03-23T01:00:24;97163.00;;;9.07;100.00
63907;BME280;50075;49.484;11.238;2024-03-23T01:02:49;97159.47;;;9.14;100.00
63907;BME280;50075;49.484;11.238;2024-03-23T01:05:14;97148.66;;;8.71;100.00
63907;BME280;50075;49.484;11.238;2024-03-23T01:07:40;97144.03;;;9.05;100.00
63907;BME280;50075;49.484;11.238;2024-03-23T01:10:05;97144.97;;;8.96;100.00
63907;BME280;50075;49.484;11.238;2024-03-23T01:12:31;97139.88;;;8.88;100.00
63907;BME280;50075;49.484;11.238;2024-03-23T01:14:56;97137.22;;;8.93;100.00
63907;BME280;50075;49.484;11.238;2024-03-23T01:17:21;97145.06;;;8.87;100.00
63907;BME280;50075;49.484;11.238;2024-03-23T01:19:47;97140.59;;;8.99;100.00
63907;BME280;50075;49.484;11.238;2024-03-23T01:22:12;97135.72;;;8.70;100.00
63907;BME280;50075;49.484;11.238;2024-03-23T01:24:37;97133.91;;;8.77;100.00
63907;BME280;50075;49.484;11.238;2024-03-23T01:27:03;97132.81;;;9.01;100.00
63907;BME280;50075;49.484;11.238;2024-03-23T01:29:28;97124.19;;;8.97;100.00
63907;BME280;50075;49.484;11.238;2024-03-23T01:31:54;97126.94;;;8.85;100.00
63907;BME280;50075;49.484;11.238;2024-03-23T01:34:19;97120.47;;;9.20;100.00
63907;BME280;50075;49.484;11.238;2024-03-23T01:36:46;97118.31;;;9.57;100.00
63907;BME280;50075;49.484;11.238;2024-03-23T01:39:11;97108.75;;;9.60;100.00
63907;BME280;50075;49.484;11.238;2024-03-23T01:41:37;97119.81;;;9.04;100.00
63907;BME280;50075;49.484;11.238;2024-03-23T01:44:05;97109.34;;;9.10;100.00
63907;BME280;50075;49.484;11.238;2024-03-23T01:46:37;97109.97;;;9.30;100.00
63907;BME280;50075;49.484;11.238;2024-03-23T01:49:04;97111.13;;;9.07;100.00
63907;BME280;50075;49.484;11.238;2024-03-23T01:51:30;97105.19;;;8.97;100.00
63907;BME280;50075;49.484;11.238;2024-03-23T01:53:57;97101.41;;;9.24;100.00
63907;BME280;50075;49.484;11.238;2024-03-23T01:56:26;97097.50;;;8.88;100.00
63907;BME280;50075;49.484;11.238;2024-03-23T01:58:51;97093.59;;;8.44;100.00
63907;BME280;50075;49.484;11.238;2024-03-23T02:01:16;97083.50;;;8.12;100.00
63907;BME280;50075;49.484;11.238;2024-03-23T02:03:42;97084.09;;;8.43;100.00
63907;BME280;50075;49.484;11.238;2024-03-23T02:06:08;97080.69;;;8.38;100.00
63907;BME280;50075;49.484;11.238;2024-03-23T02:08:34;97073.78;;;8.40;100.00
63907;BME280;50075;49.484;11.238;2024-03-23T02:10:59;97069.09;;;8.80;100.00
63907;BME280;50075;49.484;11.238;2024-03-23T02:13:25;97073.28;;;8.90;100.00
63907;BME280;50075;49.484;11.238;2024-03-23T02:15:50;97064.59;;;8.91;100.00
63907;BME280;50075;49.484;11.238;2024-03-23T02:18:15;97064.34;;;9.77;100.00
63907;BME280;50075;49.484;11.238;2024-03-23T02:20:41;97054.53;;;9.37;100.00
63907;BME280;50075;49.484;11.238;2024-03-23T02:23:13;97052.69;;;9.45;100.00
63907;BME280;50075;49.484;11.238;2024-03-23T02:25:38;97047.03;;;9.15;100.00
63907;BME280;50075;49.484;11.238;2024-03-23T02:28:04;97040.50;;;8.83;100.00
63907;BME280;50075;49.484;11.238;2024-03-23T02:30:30;97041.56;;;9.37;100.00
63907;BME280;50075;49.484;11.238;2024-03-23T02:32:55;97041.41;;;9.49;100.00
63907;BME280;50075;49.484;11.238;2024-03-23T02:35:21;97041.28;;;9.56;100.00
63907;BME280;50075;49.484;11.238;2024-03-23T02:37:47;97016.84;;;9.11;100.00
63907;BME280;50075;49.484;11.238;2024-03-23T02:40:14;97019.69;;;9.57;100.00
63907;BME280;50075;49.484;11.238;2024-03-23T02:42:39;97010.09;;;9.59;100.00
63907;BME280;50075;49.484;11.238;2024-03-23T02:45:05;97011.94;;;9.52;100.00
63907;BME280;50075;49.484;11.238;2024-03-23T02:47:30;97000.84;;;9.42;100.00
63907;BME280;50075;49.484;11.238;2024-03-23T02:49:56;96993.34;;;9.20;100.00
63907;BME280;50075;49.484;11.238;2024-03-23T02:52:21;96991.75;;;9.71;100.00
63907;BME280;50075;49.484;11.238;2024-03-23T02:54:46;96988.00;;;9.89;100.00
63907;BME280;50075;49.484;11.238;2024-03-23T02:57:12;96996.38;;;9.52;100.00
63907;BME280;50075;49.484;11.238;2024-03-23T02:59:37;96993.94;;;9.40;100.00
63907;BME280;50075;49.484;11.238;2024-03-23T03:02:02;96982.59;;;9.47;100.00
63907;BME280;50075;49.484;11.238;2024-03-23T03:04:30;96981.91;;;9.35;100.00
63907;BME280;50075;49.484;11.238;2024-03-23T03:06:55;96982.75;;;9.91;100.00
63907;BME280;50075;49.484;11.238;2024-03-23T03:09:20;96968.03;;;9.38;100.00
63907;BME280;50075;49.484;11.238;2024-03-23T03:11:46;96962.63;;;10.06;100.00
63907;BME280;50075;49.484;11.238;2024-03-23T03:14:11;96952.84;;;9.68;100.00
63907;BME280;50075;49.484;11.238;2024-03-23T03:16:37;96955.59;;;9.59;100.00
63907;BME280;50075;49.484;11.238;2024-03-23T03:19:03;96953.13;;;10.03;100.00
63907;BME280;50075;49.484;11.238;2024-03-23T03:21:28;96948.47;;;10.22;100.00
63907;BME280;50075;49.484;11.238;2024-03-23T03:23:54;96939.06;;;9.64;100.00
63907;BME280;50075;49.484;11.238;2024-03-23T03:26:21;96933.84;;;9.66;100.00
63907;BME280;50075;49.484;11.238;2024-03-23T03:28:46;96936.75;;;9.46;100.00
63907;BME280;50075;49.484;11.238;2024-03-23T03:31:17;96943.91;;;9.86;100.00
63907;BME280;50075;49.484;11.238;2024-03-23T03:33:43;96953.53;;;9.80;100.00
63907;BME280;50075;49.484;11.238;2024-03-23T03:36:09;96948.34;;;9.80;100.00
63907;BME280;50075;49.484;11.238;2024-03-23T03:38:34;96924.97;;;9.80;100.00
63907;BME280;50075;49.484;11.238;2024-03-23T03:41:03;96914.06;;;9.59;100.00
63907;BME280;50075;49.484;11.238;2024-03-23T03:43:29;96910.94;;;9.38;100.00
63907;BME280;50075;49.484;11.238;2024-03-23T03:45:55;96909.97;;;9.44;100.00
63907;BME280;50075;49.484;11.238;2024-03-23T03:48:21;96914.25;;;9.46;100.00
63907;BME280;50075;49.484;11.238;2024-03-23T03:50:47;96908.53;;;9.77;100.00
63907;BME280;50075;49.484;11.238;2024-03-23T03:53:12;96907.34;;;9.47;100.00
63907;BME280;50075;49.484;11.238;2024-03-23T03:55:37;96900.97;;;9.65;100.00
63907;BME280;50075;49.484;11.238;2024-03-23T03:58:03;96894.09;;;9.62;100.00
63907;BME280;50075;49.484;11.238;2024-03-23T04:00:29;96905.94;;;9.77;100.00
63907;BME280;50075;49.484;11.238;2024-03-23T04:02:55;96890.19;;;9.87;100.00
63907;BME280;50075;49.484;11.238;2024-03-23T04:05:20;96877.66;;;10.09;100.00
63907;BME280;50075;49.484;11.238;2024-03-23T04:07:46;96864.06;;;10.40;100.00
63907;BME280;50075;49.484;11.238;2024-03-23T04:10:11;96856.56;;;9.81;100.00
63907;BME280;50075;49.484;11.238;2024-03-23T04:12:37;96853.06;;;9.82;100.00
63907;BME280;50075;49.484;11.238;2024-03-23T04:15:02;96842.31;;;10.02;100.00
63907;BME280;50075;49.484;11.238;2024-03-23T04:17:29;96829.22;;;10.07;100.00
63907;BME280;50075;49.484;11.238;2024-03-23T04:19:57;96823.47;;;9.92;100.00
63907;BME280;50075;49.484;11.238;2024-03-23T04:22:23;96829.28;;;10.03;100.00
63907;BME280;50075;49.484;11.238;2024-03-23T04:24:57;96807.59;;;10.06;100.00
63907;BME280;50075;49.484;11.238;2024-03-23T04:27:23;96816.25;;;10.07;100.00
63907;BME280;50075;49.484;11.238;2024-03-23T04:29:52;96818.59;;;10.19;100.00
63907;BME280;50075;49.484;11.238;2024-03-23T04:32:18;96806.41;;;10.21;100.00
63907;BME280;50075;49.484;11.238;2024-03-23T04:34:44;96828.97;;;10.21;100.00
63907;BME280;50075;49.484;11.238;2024-03-23T04:37:10;96819.00;;;9.99;100.00
63907;BME280;50075;49.484;11.238;2024-03-23T04:39:36;96820.41;;;10.15;100.00
63907;BME280;50075;49.484;11.238;2024-03-23T04:42:03;96822.78;;;10.26;100.00
63907;BME280;50075;49.484;11.238;2024-03-23T04:44:28;96818.34;;;10.32;100.00
63907;BME280;50075;49.484;11.238;2024-03-23T04:46:54;96809.00;;;10.64;100.00
63907;BME280;50075;49.484;11.238;2024-03-23T04:49:19;96810.41;;;10.79;100.00
63907;BME280;50075;49.484;11.238;2024-03-23T04:51:45;96810.31;;;10.84;100.00
63907;BME280;50075;49.484;11.238;2024-03-23T04:54:14;96815.22;;;10.96;100.00
63907;BME280;50075;49.484;11.238;2024-03-23T04:56:39;96811.59;;;10.64;100.00
63907;BME280;50075;49.484;11.238;2024-03-23T04:59:05;96811.59;;;10.64;100.00
63907;BME280;50075;49.484;11.238;2024-03-23T05:01:33;96798.75;;;10.58;100.00
63907;BME280;50075;49.484;11.238;2024-03-23T05:03:58;96794.44;;;10.57;100.00
63907;BME280;50075;49.484;11.238;2024-03-23T05:06:24;96790.91;;;10.61;100.00
63907;BME280;50075;49.484;11.238;2024-03-23T05:08:51;96793.97;;;10.78;100.00
63907;BME280;50075;49.484;11.238;2024-03-23T05:11:16;96790.28;;;10.86;100.00
63907;BME280;50075;49.484;11.238;2024-03-23T05:13:42;96798.00;;;10.90;100.00
63907;BME280;50075;49.484;11.238;2024-03-23T05:16:07;96793.31;;;11.05;100.00
63907;BME280;50075;49.484;11.238;2024-03-23T05:18:33;96795.38;;;10.92;100.00
63907;BME280;50075;49.484;11.238;2024-03-23T05:20:59;96795.81;;;11.10;100.00
63907;BME280;50075;49.484;11.238;2024-03-23T05:23:25;96800.09;;;11.12;100.00
63907;BME280;50075;49.484;11.238;2024-03-23T05:25:50;96798.22;;;11.17;100.00
63907;BME280;50075;49.484;11.238;2024-03-23T05:28:17;96789.19;;;11.31;100.00
63907;BME280;50075;49.484;11.238;2024-03-23T05:30:43;96784.94;;;11.28;100.00
63907;BME280;50075;49.484;11.238;2024-03-23T05:33:08;96781.97;;;11.42;100.00
63907;BME280;50075;49.484;11.238;2024-03-23T05:35:33;96770.88;;;11.99;100.00
63907;BME280;50075;49.484;11.238;2024-03-23T05:37:59;96768.53;;;12.21;100.00
63907;BME280;50075;49.484;11.238;2024-03-23T05:40:26;96760.00;;;12.16;100.00
63907;BME280;50075;49.484;11.238;2024-03-23T05:42:52;96768.94;;;12.37;100.00
63907;BME280;50075;49.484;11.238;2024-03-23T05:45:21;96758.22;;;12.75;100.00
63907;BME280;50075;49.484;11.238;2024-03-23T05:47:48;96747.34;;;13.17;100.00
63907;BME280;50075;49.484;11.238;2024-03-23T05:50:13;96755.38;;;13.87;100.00
63907;BME280;50075;49.484;11.238;2024-03-23T05:52:39;96753.16;;;15.13;100.00
63907;BME280;50075;49.484;11.238;2024-03-23T05:55:06;96755.56;;;16.20;100.00
63907;BME280;50075;49.484;11.238;2024-03-23T05:57:31;96746.28;;;15.92;100.00
63907;BME280;50075;49.484;11.238;2024-03-23T05:59:57;96746.25;;;15.73;100.00
63907;BME280;50075;49.484;11.238;2024-03-23T06:02:23;96748.09;;;14.19;100.00
63907;BME280;50075;49.484;11.238;2024-03-23T06:04:49;96750.19;;;13.85;100.00
63907;BME280;50075;49.484;11.238;2024-03-23T06:07:14;96749.03;;;13.70;100.00
63907;BME280;50075;49.484;11.238;2024-03-23T06:09:42;96755.31;;;13.37;100.00
63907;BME280;50075;49.484;11.238;2024-03-23T06:12:08;96743.72;;;13.21;100.00
63907;BME280;50075;49.484;11.238;2024-03-23T06:14:34;96747.09;;;13.23;100.00
63907;BME280;50075;49.484;11.238;2024-03-23T06:17:00;96757.00;;;13.13;100.00
63907;BME280;50075;49.484;11.238;2024-03-23T06:19:26;96763.59;;;12.98;100.00
63907;BME280;50075;49.484;11.238;2024-03-23T06:21:53;96767.59;;;12.81;100.00
63907;BME280;50075;49.484;11.238;2024-03-23T06:24:19;96774.94;;;12.70;100.00
63907;BME280;50075;49.484;11.238;2024-03-23T06:26:44;96786.19;;;12.70;100.00
63907;BME280;50075;49.484;11.238;2024-03-23T06:29:10;96790.63;;;12.40;100.00
63907;BME280;50075;49.484;11.238;2024-03-23T06:31:35;96780.28;;;12.06;100.00
63907;BME280;50075;49.484;11.238;2024-03-23T06:34:00;96781.78;;;11.82;100.00
63907;BME280;50075;49.484;11.238;2024-03-23T06:36:26;96783.53;;;11.81;100.00
63907;BME280;50075;49.484;11.238;2024-03-23T06:38:52;96769.81;;;11.75;100.00
63907;BME280;50075;49.484;11.238;2024-03-23T06:41:19;96780.47;;;11.67;100.00
63907;BME280;50075;49.484;11.238;2024-03-23T06:43:44;96786.72;;;11.59;100.00
63907;BME280;50075;49.484;11.238;2024-03-23T06:46:09;96789.19;;;11.66;100.00
63907;BME280;50075;49.484;11.238;2024-03-23T06:48:35;96786.78;;;11.90;100.00
63907;BME280;50075;49.484;11.238;2024-03-23T06:51:00;96778.00;;;11.92;100.00
63907;BME280;50075;49.484;11.238;2024-03-23T06:53:25;96778.22;;;11.86;100.00
63907;BME280;50075;49.484;11.238;2024-03-23T06:55:53;96774.69;;;12.19;100.00
63907;BME280;50075;49.484;11.238;2024-03-23T06:58:23;96760.97;;;12.14;100.00
63907;BME280;50075;49.484;11.238;2024-03-23T07:00:48;96762.94;;;12.05;100.00
63907;BME280;50075;49.484;11.238;2024-03-23T07:03:14;96762.66;;;12.15;100.00
63907;BME280;50075;49.484;11.238;2024-03-23T07:05:39;96771.44;;;12.41;100.00
63907;BME280;50075;49.484;11.238;2024-03-23T07:08:05;96776.31;;;12.23;100.00
63907;BME280;50075;49.484;11.238;2024-03-23T07:10:30;96775.34;;;12.27;100.00
63907;BME280;50075;49.484;11.238;2024-03-23T07:12:56;96781.50;;;12.24;100.00
63907;BME280;50075;49.484;11.238;2024-03-23T07:15:21;96791.88;;;12.26;100.00
63907;BME280;50075;49.484;11.238;2024-03-23T07:17:47;96792.63;;;12.30;100.00
63907;BME280;50075;49.484;11.238;2024-03-23T07:20:13;96782.78;;;12.40;100.00
63907;BME280;50075;49.484;11.238;2024-03-23T07:22:38;96795.66;;;12.44;100.00
63907;BME280;50075;49.484;11.238;2024-03-23T07:25:05;96793.59;;;12.27;100.00
63907;BME280;50075;49.484;11.238;2024-03-23T07:27:31;96810.09;;;12.28;100.00
63907;BME280;50075;49.484;11.238;2024-03-23T07:29:56;96798.06;;;11.90;100.00
63907;BME280;50075;49.484;11.238;2024-03-23T07:32:21;96793.41;;;12.02;100.00
63907;BME280;50075;49.484;11.238;2024-03-23T07:34:47;96802.81;;;12.07;100.00
63907;BME280;50075;49.484;11.238;2024-03-23T07:37:13;96791.47;;;12.10;100.00
63907;BME280;50075;49.484;11.238;2024-03-23T07:39:39;96792.81;;;11.92;100.00
63907;BME280;50075;49.484;11.238;2024-03-23T07:42:04;96803.50;;;11.82;100.00
63907;BME280;50075;49.484;11.238;2024-03-23T07:44:30;96795.22;;;11.98;100.00
63907;BME280;50075;49.484;11.238;2024-03-23T07:46:55;96808.44;;;11.92;100.00
63907;BME280;50075;49.484;11.238;2024-03-23T07:49:21;96824.56;;;12.06;100.00
63907;BME280;50075;49.484;11.238;2024-03-23T07:51:46;96823.25;;;11.90;100.00
63907;BME280;50075;49.484;11.238;2024-03-23T07:54:12;96827.09;;;11.76;100.00
63907;BME280;50075;49.484;11.238;2024-03-23T07:56:37;96835.22;;;11.97;100.00
63907;BME280;50075;49.484;11.238;2024-03-23T07:59:02;96841.16;;;12.02;100.00
63907;BME280;50075;49.484;11.238;2024-03-23T08:01:31;96842.78;;;12.08;100.00
63907;BME280;50075;49.484;11.238;2024-03-23T08:03:56;96832.00;;;12.20;100.00
63907;BME280;50075;49.484;11.238;2024-03-23T08:06:21;96837.22;;;12.50;100.00
63907;BME280;50075;49.484;11.238;2024-03-23T08:08:51;96842.41;;;13.09;100.00
63907;BME280;50075;49.484;11.238;2024-03-23T08:11:24;96836.38;;;13.07;100.00
63907;BME280;50075;49.484;11.238;2024-03-23T08:13:49;96841.56;;;12.80;100.00
63907;BME280;50075;49.484;11.238;2024-03-23T08:16:15;96840.69;;;13.08;100.00
63907;BME280;50075;49.484;11.238;2024-03-23T08:18:40;96830.66;;;13.23;100.00
63907;BME280;50075;49.484;11.238;2024-03-23T08:21:06;96839.78;;;13.63;100.00
63907;BME280;50075;49.484;11.238;2024-03-23T08:23:32;96870.25;;;13.09;100.00
63907;BME280;50075;49.484;11.238;2024-03-23T08:26:00;96873.44;;;12.61;100.00
63907;BME280;50075;49.484;11.238;2024-03-23T08:28:26;96892.38;;;11.70;100.00
63907;BME280;50075;49.484;11.238;2024-03-23T08:30:52;96918.78;;;11.18;100.00
63907;BME280;50075;49.484;11.238;2024-03-23T08:33:18;96923.44;;;11.03;100.00
63907;BME280;50075;49.484;11.238;2024-03-23T08:35:56;96955.59;;;10.99;100.00
63907;BME280;50075;49.484;11.238;2024-03-23T08:38:26;96959.53;;;10.78;100.00
63907;BME280;50075;49.484;11.238;2024-03-23T08:41:05;96977.78;;;10.76;100.00
63907;BME280;50075;49.484;11.238;2024-03-23T08:43:35;96979.44;;;10.79;100.00
63907;BME280;50075;49.484;11.238;2024-03-23T08:46:10;96982.66;;;10.92;100.00
63907;BME280;50075;49.484;11.238;2024-03-23T08:48:43;96992.38;;;11.25;100.00
63907;BME280;50075;49.484;11.238;2024-03-23T08:51:10;97003.56;;;11.28;100.00
63907;BME280;50075;49.484;11.238;2024-03-23T08:53:35;96992.22;;;12.07;100.00
63907;BME280;50075;49.484;11.238;2024-03-23T08:56:01;96996.00;;;12.61;100.00
63907;BME280;50075;49.484;11.238;2024-03-23T08:58:28;97006.94;;;15.19;100.00
63907;BME280;50075;49.484;11.238;2024-03-23T09:00:55;97005.22;;;13.35;100.00
63907;BME280;50075;49.484;11.238;2024-03-23T09:03:26;97026.59;;;12.88;100.00
63907;BME280;50075;49.484;11.238;2024-03-23T09:05:52;97017.50;;;13.90;100.00
63907;BME280;50075;49.484;11.238;2024-03-23T09:08:18;97029.34;;;13.74;100.00
63907;BME280;50075;49.484;11.238;2024-03-23T09:10:44;97047.63;;;13.44;100.00
63907;BME280;50075;49.484;11.238;2024-03-23T09:13:09;97059.84;;;12.48;100.00
63907;BME280;50075;49.484;11.238;2024-03-23T09:15:36;97053.56;;;11.84;100.00
63907;BME280;50075;49.484;11.238;2024-03-23T09:18:05;97081.41;;;11.80;100.00
63907;BME280;50075;49.484;11.238;2024-03-23T09:20:33;97085.97;;;11.29;100.00
63907;BME280;50075;49.484;11.238;2024-03-23T09:22:58;97100.13;;;11.58;100.00
63907;BME280;50075;49.484;11.238;2024-03-23T09:25:24;97097.09;;;13.18;100.00
63907;BME280;50075;49.484;11.238;2024-03-23T09:27:50;97096.78;;;12.66;100.00
63907;BME280;50075;49.484;11.238;2024-03-23T09:30:15;97104.03;;;11.78;100.00
63907;BME280;50075;49.484;11.238;2024-03-23T09:32:43;97109.78;;;11.53;100.00
63907;BME280;50075;49.484;11.238;2024-03-23T09:35:08;97124.78;;;10.98;100.00
63907;BME280;50075;49.484;11.238;2024-03-23T09:37:33;97121.50;;;11.32;100.00
63907;BME280;50075;49.484;11.238;2024-03-23T09:39:59;97102.94;;;11.49;100.00
63907;BME280;50075;49.484;11.238;2024-03-23T09:42:24;97108.97;;;11.91;100.00
63907;BME280;50075;49.484;11.238;2024-03-23T09:44:51;97127.03;;;14.25;100.00
63907;BME280;50075;49.484;11.238;2024-03-23T09:47:17;97123.84;;;17.81;100.00
63907;BME280;50075;49.484;11.238;2024-03-23T09:49:42;97119.16;;;19.48;93.73
63907;BME280;50075;49.484;11.238;2024-03-23T09:52:08;97131.63;;;18.58;90.57
63907;BME280;50075;49.484;11.238;2024-03-23T09:54:33;97138.66;;;17.03;89.11
63907;BME280;50075;49.484;11.238;2024-03-23T09:56:59;97132.66;;;17.61;82.35
63907;BME280;50075;49.484;11.238;2024-03-23T09:59:24;97127.75;;;16.28;90.22
63907;BME280;50075;49.484;11.238;2024-03-23T10:01:52;97137.97;;;15.18;100.00
63907;BME280;50075;49.484;11.238;2024-03-23T10:04:37;97141.00;;;14.26;100.00
63907;BME280;50075;49.484;11.238;2024-03-23T10:07:21;97146.13;;;14.29;100.00
63907;BME280;50075;49.484;11.238;2024-03-23T10:09:47;97162.25;;;14.15;100.00
63907;BME280;50075;49.484;11.238;2024-03-23T10:12:15;97162.13;;;13.89;100.00
63907;BME280;50075;49.484;11.238;2024-03-23T10:14:40;97169.06;;;14.21;100.00
63907;BME280;50075;49.484;11.238;2024-03-23T10:17:15;97158.53;;;13.32;100.00
63907;BME280;50075;49.484;11.238;2024-03-23T10:19:48;97162.28;;;13.21;100.00
63907;BME280;50075;49.484;11.238;2024-03-23T10:22:19;97168.06;;;14.25;100.00
63907;BME280;50075;49.484;11.238;2024-03-23T10:24:46;97158.56;;;17.30;100.00
63907;BME280;50075;49.484;11.238;2024-03-23T10:27:15;97164.16;;;16.58;100.00
63907;BME280;50075;49.484;11.238;2024-03-23T10:29:41;97164.28;;;18.36;100.00
63907;BME280;50075;49.484;11.238;2024-03-23T10:32:10;97167.50;;;18.24;100.00
63907;BME280;50075;49.484;11.238;2024-03-23T10:34:37;97182.63;;;18.92;100.00
63907;BME280;50075;49.484;11.238;2024-03-23T10:37:03;97194.59;;;17.47;100.00
63907;BME280;50075;49.484;11.238;2024-03-23T10:39:39;97225.94;;;14.69;98.38
63907;BME280;50075;49.484;11.238;2024-03-23T10:42:09;97230.34;;;13.48;100.00
63907;BME280;50075;49.484;11.238;2024-03-23T10:44:37;97245.03;;;12.46;100.00
63907;BME280;50075;49.484;11.238;2024-03-23T10:47:04;97244.84;;;12.54;100.00
63907;BME280;50075;49.484;11.238;2024-03-23T10:49:34;97227.75;;;13.13;100.00
63907;BME280;50075;49.484;11.238;2024-03-23T10:52:01;97204.25;;;13.78;100.00
63907;BME280;50075;49.484;11.238;2024-03-23T10:54:27;97198.63;;;15.31;84.10
63907;BME280;50075;49.484;11.238;2024-03-23T10:57:08;97196.16;;;15.01;100.00
63907;BME280;50075;49.484;11.238;2024-03-23T10:59:36;97222.97;;;14.53;100.00
63907;BME280;50075;49.484;11.238;2024-03-23T11:02:02;97231.78;;;13.60;100.00
63907;BME280;50075;49.484;11.238;2024-03-23T11:04:35;97245.91;;;13.53;100.00
63907;BME280;50075;49.484;11.238;2024-03-23T11:09:53;97218.41;;;13.38;100.00
63907;BME280;50075;49.484;11.238;2024-03-23T11:14:48;97205.00;;;14.42;93.03
63907;BME280;50075;49.484;11.238;2024-03-23T11:17:18;97202.13;;;13.93;95.61
63907;BME280;50075;49.484;11.238;2024-03-23T11:19:44;97203.22;;;13.84;93.74
63907;BME280;50075;49.484;11.238;2024-03-23T11:22:09;97198.16;;;14.10;100.00
63907;BME280;50075;49.484;11.238;2024-03-23T11:24:35;97204.91;;;13.22;90.33
63907;BME280;50075;49.484;11.238;2024-03-23T11:27:00;97197.63;;;13.97;99.48
63907;BME280;50075;49.484;11.238;2024-03-23T11:29:29;97188.16;;;16.49;73.24
63907;BME280;50075;49.484;11.238;2024-03-23T11:31:55;97188.22;;;18.31;56.92
63907;BME280;50075;49.484;11.238;2024-03-23T11:34:21;97191.03;;;17.88;52.74
63907;BME280;50075;49.484;11.238;2024-03-23T11:36:47;97201.47;;;15.74;55.50
63907;BME280;50075;49.484;11.238;2024-03-23T11:39:17;97192.84;;;15.46;58.78
63907;BME280;50075;49.484;11.238;2024-03-23T11:41:47;97196.53;;;16.12;58.35
63907;BME280;50075;49.484;11.238;2024-03-23T11:46:41;97211.94;;;14.43;70.24
63907;BME280;50075;49.484;11.238;2024-03-23T11:49:06;97225.25;;;14.07;75.93
63907;BME280;50075;49.484;11.238;2024-03-23T11:51:32;97239.63;;;13.92;80.60
63907;BME280;50075;49.484;11.238;2024-03-23T11:54:08;97242.84;;;13.70;89.99
63907;BME280;50075;49.484;11.238;2024-03-23T11:56:33;97248.16;;;13.67;82.20
63907;BME280;50075;49.484;11.238;2024-03-23T11:58:58;97235.47;;;13.85;83.96
63907;BME280;50075;49.484;11.238;2024-03-23T12:01:23;97241.03;;;14.61;86.93
63907;BME280;50075;49.484;11.238;2024-03-23T12:03:49;97217.31;;;14.94;84.44
63907;BME280;50075;49.484;11.238;2024-03-23T12:06:19;97228.84;;;15.65;77.91
63907;BME280;50075;49.484;11.238;2024-03-23T12:08:45;97226.25;;;14.60;64.33
63907;BME280;50075;49.484;11.238;2024-03-23T12:11:16;97235.22;;;14.80;76.35
63907;BME280;50075;49.484;11.238;2024-03-23T12:13:44;97234.38;;;14.22;67.44
63907;BME280;50075;49.484;11.238;2024-03-23T12:18:41;97230.16;;;14.47;61.55
63907;BME280;50075;49.484;11.238;2024-03-23T12:21:07;97226.94;;;14.65;75.84
63907;BME280;50075;49.484;11.238;2024-03-23T12:23:33;97218.56;;;14.54;63.77
63907;BME280;50075;49.484;11.238;2024-03-23T12:25:58;97220.47;;;14.77;57.87
63907;BME280;50075;49.484;11.238;2024-03-23T12:28:24;97208.69;;;15.18;57.83
63907;BME280;50075;49.484;11.238;2024-03-23T12:30:50;97214.91;;;15.39;57.11
63907;BME280;50075;49.484;11.238;2024-03-23T12:33:16;97208.97;;;14.26;67.46
63907;BME280;50075;49.484;11.238;2024-03-23T12:35:41;97204.41;;;14.88;80.88
63907;BME280;50075;49.484;11.238;2024-03-23T12:38:06;97205.81;;;14.43;77.80
63907;BME280;50075;49.484;11.238;2024-03-23T12:40:32;97202.88;;;13.97;59.02
63907;BME280;50075;49.484;11.238;2024-03-23T12:42:57;97197.44;;;14.89;72.54
63907;BME280;50075;49.484;11.238;2024-03-23T12:45:23;97199.94;;;14.08;71.12
63907;BME280;50075;49.484;11.238;2024-03-23T12:47:48;97198.19;;;14.37;83.23
63907;BME280;50075;49.484;11.238;2024-03-23T12:50:13;97191.72;;;14.20;72.20
63907;BME280;50075;49.484;11.238;2024-03-23T12:52:39;97191.31;;;13.75;50.17
63907;BME280;50075;49.484;11.238;2024-03-23T12:55:04;97181.84;;;13.71;51.56
63907;BME280;50075;49.484;11.238;2024-03-23T12:57:32;97181.50;;;13.52;50.18
63907;BME280;50075;49.484;11.238;2024-03-23T12:59:58;97183.09;;;13.24;55.30
63907;BME280;50075;49.484;11.238;2024-03-23T13:02:24;97188.13;;;13.31;58.13
63907;BME280;50075;49.484;11.238;2024-03-23T13:04:50;97196.41;;;14.09;63.14
63907;BME280;50075;49.484;11.238;2024-03-23T13:07:16;97189.78;;;13.66;57.05
63907;BME280;50075;49.484;11.238;2024-03-23T13:09:42;97189.16;;;13.58;55.92
63907;BME280;50075;49.484;11.238;2024-03-23T13:12:07;97201.66;;;12.79;54.11
63907;BME280;50075;49.484;11.238;2024-03-23T13:14:33;97209.72;;;13.37;52.99
63907;BME280;50075;49.484;11.238;2024-03-23T13:16:59;97202.63;;;13.43;60.69
63907;BME280;50075;49.484;11.238;2024-03-23T13:19:24;97203.38;;;13.14;62.14
63907;BME280;50075;49.484;11.238;2024-03-23T13:21:54;97186.38;;;12.98;56.53
63907;BME280;50075;49.484;11.238;2024-03-23T13:24:23;97204.50;;;12.69;54.28
63907;BME280;50075;49.484;11.238;2024-03-23T13:26:52;97206.75;;;12.09;54.35
63907;BME280;50075;49.484;11.238;2024-03-23T13:29:18;97197.72;;;12.62;57.19
63907;BME280;50075;49.484;11.238;2024-03-23T13:31:47;97197.09;;;12.52;55.02
63907;BME280;50075;49.484;11.238;2024-03-23T13:34:13;97194.19;;;11.85;54.12
63907;BME280;50075;49.484;11.238;2024-03-23T13:36:41;97195.75;;;11.52;55.07
63907;BME280;50075;49.484;11.238;2024-03-23T13:39:06;97196.66;;;11.93;56.83
63907;BME280;50075;49.484;11.238;2024-03-23T13:41:40;97192.28;;;12.33;56.09
63907;BME280;50075;49.484;11.238;2024-03-23T13:44:06;97188.28;;;12.18;54.92
63907;BME280;50075;49.484;11.238;2024-03-23T13:46:33;97196.41;;;13.15;56.44